createdAt,value
2019-06-08T00:14:13.183Z,24.87
2019-06-08T00:44:19.261Z,27.47
2019-06-08T01:14:24.858Z,23.47
2019-06-08T01:44:32.041Z,22.33
2019-06-08T02:14:37.425Z,23.47
2019-06-08T02:44:42.710Z,21.23
2019-06-08T03:14:50.927Z,26.43
2019-06-08T03:44:56.350Z,22.90
2019-06-08T04:15:01.832Z,19.62
2019-06-08T04:45:07.594Z,16.77
2019-06-08T05:15:13.025Z,16.27
2019-06-08T05:45:18.459Z,17.27
2019-06-08T06:15:23.828Z,18.37
2019-06-08T06:45:29.067Z,16.37
2019-06-08T07:15:41.469Z,15.20
2019-06-08T07:45:41.482Z,17.27
2019-06-08T08:15:46.832Z,12.73
2019-06-08T08:45:52.161Z,16.40
2019-06-08T09:16:00.786Z,13.05
2019-06-08T09:46:05.533Z,12.78
2019-06-08T10:16:11.466Z,11.88
2019-06-08T10:46:20.549Z,12.10
2019-06-08T11:16:23.970Z,11.95
2019-06-08T11:46:29.408Z,11.47
2019-06-08T12:16:34.836Z,17.40
2019-06-08T12:46:41.356Z,9.40
2019-06-08T13:16:48.924Z,10.03
2019-06-08T13:46:53.962Z,10.48
2019-06-08T14:17:00.104Z,10.68
2019-06-08T14:47:14.415Z,18.63
2019-06-08T15:17:19.711Z,13.00
2019-06-08T15:47:26.116Z,21.07
2019-06-08T16:17:31.553Z,16.90
2019-06-08T16:47:36.878Z,20.97
2019-06-08T17:17:42.090Z,21.40
2019-06-08T17:47:47.326Z,14.93
2019-06-08T18:17:52.786Z,12.67
2019-06-08T18:47:58.243Z,13.60
2019-06-08T19:18:03.849Z,11.73
2019-06-08T19:48:10.234Z,12.10
2019-06-08T20:18:17.185Z,6.53
2019-06-08T20:48:22.667Z,5.57
2019-06-08T21:18:27.882Z,7.23
2019-06-08T21:48:33.141Z,3.07
2019-06-08T22:18:39.322Z,4.57
2019-06-08T22:48:44.592Z,4.63
2019-06-08T23:18:49.934Z,4.63
2019-06-08T23:48:58.938Z,8.07
